RYR46HW EGGD-LFRS
Flight info
| Callsign | RYR46HW |
|---|---|
| Flight time | 0h 54m |
| Altitude | 33000 |
| Route | EXMOR N92 DAWLY N864 ABBEW N90 SKESO UN862 GODAN |
| Aircraft | B738/M-SDE2E3FGHIRWXY/LB1 |
Departure
| Time | 2026-05-04 19:05 |
|---|---|
| Airport | Bristol Airport (EGGD) |
Arrival
| Time | 2026-05-04 20:00 |
|---|---|
| Airport | Nantes Atlantique Airport (LFRS) |
| Time | Latitude | Longitude | Altitude | Speed | Heading |
|---|---|---|---|---|---|
| 2026-05-04 18:36 | 51.38549 | -2.71469 | 623 ft | 0 kts | 356° |
| 2026-05-04 18:53 | 51.38529 | -2.71467 | 626 ft | 4 kts | 356° |
| 2026-05-04 18:54 | 51.38508 | -2.71466 | 623 ft | 4 kts | 23° |
| 2026-05-04 18:54 | 51.38497 | -2.71491 | 626 ft | 4 kts | 86° |
| 2026-05-04 18:54 | 51.38496 | -2.71524 | 625 ft | 1 kts | 86° |
| 2026-05-04 18:54 | 51.38498 | -2.71485 | 626 ft | 3 kts | 86° |
| 2026-05-04 18:55 | 51.38498 | -2.71479 | 626 ft | 0 kts | 86° |
| 2026-05-04 19:00 | 51.38498 | -2.71460 | 618 ft | 5 kts | 91° |
| 2026-05-04 19:00 | 51.38469 | -2.71410 | 615 ft | 8 kts | 186° |
| 2026-05-04 19:01 | 51.38442 | -2.71511 | 615 ft | 14 kts | 266° |
| 2026-05-04 19:01 | 51.38435 | -2.71691 | 605 ft | 17 kts | 268° |
| 2026-05-04 19:01 | 51.38430 | -2.71877 | 609 ft | 16 kts | 272° |
| 2026-05-04 19:01 | 51.38429 | -2.72055 | 611 ft | 16 kts | 268° |
| 2026-05-04 19:02 | 51.38421 | -2.72225 | 610 ft | 15 kts | 267° |
| 2026-05-04 19:02 | 51.38418 | -2.72335 | 612 ft | 15 kts | 267° |
| 2026-05-04 19:02 | 51.38410 | -2.72544 | 621 ft | 14 kts | 266° |
| 2026-05-04 19:02 | 51.38404 | -2.72694 | 621 ft | 13 kts | 266° |
| 2026-05-04 19:03 | 51.38400 | -2.72791 | 614 ft | 13 kts | 266° |
| 2026-05-04 19:03 | 51.38394 | -2.72954 | 618 ft | 17 kts | 266° |
| 2026-05-04 19:03 | 51.38386 | -2.73163 | 614 ft | 20 kts | 266° |
| 2026-05-04 19:03 | 51.38325 | -2.73337 | 613 ft | 19 kts | 196° |
| 2026-05-04 19:04 | 51.38225 | -2.73284 | 626 ft | 11 kts | 121° |
| 2026-05-04 19:04 | 51.38219 | -2.73165 | 631 ft | 11 kts | 86° |
| 2026-05-04 19:04 | 51.38236 | -2.72733 | 628 ft | 78 kts | 86° |
| 2026-05-04 19:04 | 51.38288 | -2.71435 | 607 ft | 153 kts | 85° |
| 2026-05-04 19:05 | 51.38339 | -2.69546 | 1073 ft | 181 kts | 88° |
| 2026-05-04 19:05 | 51.38358 | -2.67462 | 2005 ft | 189 kts | 86° |
| 2026-05-04 19:05 | 51.38418 | -2.65361 | 2969 ft | 190 kts | 86° |
| 2026-05-04 19:05 | 51.38472 | -2.63225 | 3597 ft | 200 kts | 86° |
| 2026-05-04 19:06 | 51.38516 | -2.60904 | 4027 ft | 215 kts | 87° |
| 2026-05-04 19:06 | 51.38557 | -2.58483 | 4641 ft | 220 kts | 87° |
| 2026-05-04 19:06 | 51.38378 | -2.55986 | 5121 ft | 235 kts | 105° |
| 2026-05-04 19:06 | 51.37719 | -2.53413 | 5315 ft | 267 kts | 120° |
| 2026-05-04 19:07 | 51.36647 | -2.50984 | 5950 ft | 272 kts | 132° |
| 2026-05-04 19:07 | 51.35153 | -2.49130 | 6001 ft | 271 kts | 157° |
| 2026-05-04 19:07 | 51.33321 | -2.48493 | 6025 ft | 272 kts | 181° |
| 2026-05-04 19:07 | 51.31455 | -2.49053 | 6031 ft | 273 kts | 202° |
| 2026-05-04 19:08 | 51.29833 | -2.50557 | 6012 ft | 274 kts | 220° |
| 2026-05-04 19:08 | 51.28574 | -2.52837 | 6021 ft | 275 kts | 239° |
| 2026-05-04 19:08 | 51.27875 | -2.55700 | 6416 ft | 280 kts | 259° |
| 2026-05-04 19:08 | 51.27761 | -2.58798 | 7292 ft | 279 kts | 272° |
| 2026-05-04 19:09 | 51.27894 | -2.61895 | 8163 ft | 280 kts | 275° |
| 2026-05-04 19:09 | 51.28068 | -2.65017 | 8959 ft | 284 kts | 275° |
| 2026-05-04 19:09 | 51.28234 | -2.68169 | 9759 ft | 288 kts | 274° |
| 2026-05-04 19:09 | 51.28387 | -2.71401 | 10382 ft | 297 kts | 273° |
| 2026-05-04 19:10 | 51.28534 | -2.74842 | 10571 ft | 321 kts | 273° |
| 2026-05-04 19:10 | 51.28675 | -2.78489 | 10759 ft | 344 kts | 270° |
| 2026-05-04 19:10 | 51.28300 | -2.82335 | 11037 ft | 358 kts | 245° |
| 2026-05-04 19:10 | 51.26829 | -2.85527 | 11692 ft | 359 kts | 219° |
| 2026-05-04 19:11 | 51.24692 | -2.87563 | 12432 ft | 360 kts | 201° |
| 2026-05-04 19:11 | 51.22283 | -2.88482 | 13156 ft | 362 kts | 186° |
| 2026-05-04 19:11 | 51.19754 | -2.88845 | 13880 ft | 365 kts | 184° |
| 2026-05-04 19:11 | 51.17234 | -2.89096 | 14483 ft | 368 kts | 183° |
| 2026-05-04 19:12 | 51.14647 | -2.89324 | 15097 ft | 372 kts | 183° |
| 2026-05-04 19:12 | 51.09429 | -2.89807 | 16332 ft | 379 kts | 184° |
| 2026-05-04 19:12 | 51.06782 | -2.90073 | 16931 ft | 382 kts | 184° |
| 2026-05-04 19:13 | 51.04144 | -2.90348 | 17516 ft | 385 kts | 184° |
| 2026-05-04 19:13 | 51.01452 | -2.90635 | 18107 ft | 389 kts | 184° |
| 2026-05-04 19:13 | 50.98729 | -2.90931 | 18644 ft | 392 kts | 184° |
| 2026-05-04 19:13 | 50.95999 | -2.91230 | 19216 ft | 393 kts | 184° |
| 2026-05-04 19:14 | 50.93265 | -2.91530 | 19791 ft | 394 kts | 184° |
| 2026-05-04 19:14 | 50.90556 | -2.91828 | 20328 ft | 396 kts | 184° |
| 2026-05-04 19:14 | 50.87797 | -2.92131 | 20865 ft | 397 kts | 184° |
| 2026-05-04 19:14 | 50.85018 | -2.92436 | 21385 ft | 399 kts | 184° |
| 2026-05-04 19:15 | 50.82230 | -2.92742 | 21903 ft | 401 kts | 184° |
| 2026-05-04 19:15 | 50.79467 | -2.93044 | 22415 ft | 403 kts | 184° |
| 2026-05-04 19:15 | 50.76663 | -2.93350 | 22920 ft | 404 kts | 184° |
| 2026-05-04 19:15 | 50.73835 | -2.93658 | 23393 ft | 407 kts | 184° |
| 2026-05-04 19:16 | 50.71025 | -2.93964 | 23816 ft | 409 kts | 184° |
| 2026-05-04 19:16 | 50.68185 | -2.94273 | 24206 ft | 410 kts | 184° |
| 2026-05-04 19:16 | 50.65323 | -2.94584 | 24588 ft | 412 kts | 184° |
| 2026-05-04 19:16 | 50.62451 | -2.94896 | 24956 ft | 414 kts | 184° |
| 2026-05-04 19:17 | 50.59572 | -2.95208 | 25334 ft | 415 kts | 183° |
| 2026-05-04 19:17 | 50.56684 | -2.95521 | 25717 ft | 416 kts | 183° |
| 2026-05-04 19:17 | 50.53786 | -2.95834 | 26071 ft | 418 kts | 183° |
| 2026-05-04 19:17 | 50.50909 | -2.96144 | 26400 ft | 420 kts | 183° |
| 2026-05-04 19:18 | 50.47987 | -2.96459 | 26729 ft | 421 kts | 183° |
| 2026-05-04 19:18 | 50.45035 | -2.96777 | 27061 ft | 423 kts | 183° |
| 2026-05-04 19:18 | 50.42089 | -2.97094 | 27383 ft | 425 kts | 183° |
| 2026-05-04 19:18 | 50.39127 | -2.97412 | 27696 ft | 426 kts | 183° |
| 2026-05-04 19:19 | 50.36193 | -2.97727 | 27994 ft | 428 kts | 182° |
| 2026-05-04 19:19 | 50.33211 | -2.98046 | 28292 ft | 429 kts | 182° |
| 2026-05-04 19:19 | 50.30222 | -2.98366 | 28703 ft | 428 kts | 182° |
| 2026-05-04 19:19 | 50.27257 | -2.98683 | 29211 ft | 425 kts | 182° |
| 2026-05-04 19:20 | 50.24343 | -2.98995 | 29710 ft | 422 kts | 182° |
| 2026-05-04 19:20 | 50.21410 | -2.99307 | 30121 ft | 421 kts | 182° |
| 2026-05-04 19:20 | 50.18471 | -2.99609 | 30383 ft | 422 kts | 182° |
| 2026-05-04 19:20 | 50.15524 | -2.99907 | 30578 ft | 425 kts | 182° |
| 2026-05-04 19:21 | 50.12590 | -3.00214 | 30810 ft | 426 kts | 182° |
| 2026-05-04 19:21 | 50.09633 | -3.00529 | 31085 ft | 427 kts | 182° |
| 2026-05-04 19:21 | 50.06657 | -3.00847 | 31326 ft | 428 kts | 182° |
| 2026-05-04 19:21 | 50.03674 | -3.01165 | 31546 ft | 430 kts | 182° |
| 2026-05-04 19:22 | 50.00687 | -3.01483 | 31788 ft | 431 kts | 182° |
| 2026-05-04 19:22 | 49.97689 | -3.01800 | 32031 ft | 432 kts | 182° |
| 2026-05-04 19:22 | 49.94721 | -3.02114 | 32243 ft | 433 kts | 182° |
| 2026-05-04 19:22 | 49.91690 | -3.02433 | 32467 ft | 434 kts | 183° |
| 2026-05-04 19:23 | 49.88670 | -3.02751 | 32768 ft | 434 kts | 183° |
| 2026-05-04 19:23 | 49.85650 | -3.02899 | 32973 ft | 435 kts | 174° |
| 2026-05-04 19:23 | 49.82696 | -3.01881 | 33010 ft | 437 kts | 159° |
| 2026-05-04 19:23 | 49.80003 | -2.99792 | 32998 ft | 438 kts | 146° |
| 2026-05-04 19:24 | 49.77674 | -2.96755 | 33016 ft | 437 kts | 136° |
| 2026-05-04 19:24 | 49.75577 | -2.93384 | 33245 ft | 431 kts | 135° |
| 2026-05-04 19:24 | 49.73431 | -2.90117 | 33109 ft | 434 kts | 138° |
| 2026-05-04 19:25 | 49.68980 | -2.83839 | 33031 ft | 435 kts | 139° |
| 2026-05-04 19:25 | 49.64478 | -2.77563 | 33007 ft | 435 kts | 139° |
| 2026-05-04 19:26 | 49.60028 | -2.71293 | 32999 ft | 435 kts | 139° |
| 2026-05-04 19:26 | 49.55569 | -2.64978 | 32987 ft | 433 kts | 139° |
| 2026-05-04 19:27 | 49.51151 | -2.58727 | 32990 ft | 432 kts | 139° |
| 2026-05-04 19:27 | 49.46712 | -2.52462 | 33002 ft | 431 kts | 140° |
| 2026-05-04 19:28 | 49.42313 | -2.46271 | 32990 ft | 429 kts | 140° |
| 2026-05-04 19:28 | 49.37904 | -2.40084 | 32993 ft | 427 kts | 140° |
| 2026-05-04 19:29 | 49.33517 | -2.33942 | 32995 ft | 426 kts | 140° |
| 2026-05-04 19:29 | 49.29157 | -2.27854 | 32993 ft | 425 kts | 140° |
| 2026-05-04 19:30 | 49.24800 | -2.21784 | 32995 ft | 424 kts | 140° |
| 2026-05-04 19:30 | 49.20427 | -2.15706 | 32990 ft | 422 kts | 140° |
| 2026-05-04 19:31 | 49.16099 | -2.09708 | 32991 ft | 421 kts | 140° |
| 2026-05-04 19:31 | 49.11740 | -2.03681 | 32996 ft | 421 kts | 141° |
| 2026-05-04 19:32 | 49.07415 | -1.97716 | 32994 ft | 420 kts | 141° |
| 2026-05-04 19:32 | 49.03064 | -1.91729 | 32991 ft | 420 kts | 141° |
| 2026-05-04 19:33 | 48.98749 | -1.85802 | 32987 ft | 420 kts | 141° |
| 2026-05-04 19:33 | 48.94400 | -1.79859 | 32976 ft | 416 kts | 142° |
| 2026-05-04 19:33 | 48.92049 | -1.77477 | 32949 ft | 396 kts | 156° |
| 2026-05-04 19:34 | 48.89508 | -1.75983 | 32673 ft | 387 kts | 165° |
| 2026-05-04 19:34 | 48.86879 | -1.75115 | 31981 ft | 388 kts | 174° |
| 2026-05-04 19:34 | 48.84184 | -1.74999 | 31102 ft | 395 kts | 179° |
| 2026-05-04 19:34 | 48.81418 | -1.74998 | 30324 ft | 399 kts | 179° |
| 2026-05-04 19:35 | 48.78645 | -1.75000 | 29746 ft | 396 kts | 179° |
| 2026-05-04 19:35 | 48.75906 | -1.74994 | 29143 ft | 392 kts | 179° |
| 2026-05-04 19:35 | 48.73195 | -1.74979 | 28839 ft | 382 kts | 179° |
| 2026-05-04 19:35 | 48.70555 | -1.74957 | 28432 ft | 376 kts | 179° |
| 2026-05-04 19:36 | 48.67957 | -1.74930 | 28042 ft | 370 kts | 178° |
| 2026-05-04 19:36 | 48.65434 | -1.74901 | 27660 ft | 364 kts | 178° |
| 2026-05-04 19:36 | 48.62912 | -1.74872 | 27225 ft | 360 kts | 178° |
| 2026-05-04 19:36 | 48.60408 | -1.74841 | 26743 ft | 358 kts | 178° |
| 2026-05-04 19:37 | 48.57913 | -1.74810 | 26281 ft | 356 kts | 178° |
| 2026-05-04 19:37 | 48.55473 | -1.74781 | 25833 ft | 354 kts | 178° |
| 2026-05-04 19:37 | 48.53008 | -1.74751 | 25378 ft | 352 kts | 178° |
| 2026-05-04 19:37 | 48.50555 | -1.74721 | 24934 ft | 351 kts | 178° |
| 2026-05-04 19:38 | 48.48111 | -1.74691 | 24500 ft | 350 kts | 178° |
| 2026-05-04 19:38 | 48.45701 | -1.74662 | 24073 ft | 349 kts | 178° |
| 2026-05-04 19:38 | 48.43267 | -1.74633 | 23653 ft | 348 kts | 178° |
| 2026-05-04 19:38 | 48.40850 | -1.74604 | 23176 ft | 347 kts | 178° |
| 2026-05-04 19:39 | 48.38432 | -1.74575 | 22681 ft | 347 kts | 178° |
| 2026-05-04 19:39 | 48.36042 | -1.74546 | 22197 ft | 346 kts | 178° |
| 2026-05-04 19:39 | 48.33634 | -1.74517 | 21721 ft | 345 kts | 178° |
| 2026-05-04 19:39 | 48.31238 | -1.74489 | 21250 ft | 344 kts | 178° |
| 2026-05-04 19:40 | 48.28834 | -1.74460 | 20781 ft | 344 kts | 178° |
| 2026-05-04 19:40 | 48.26440 | -1.74432 | 20324 ft | 343 kts | 178° |
| 2026-05-04 19:40 | 48.24051 | -1.74403 | 19874 ft | 342 kts | 178° |
| 2026-05-04 19:40 | 48.21695 | -1.74375 | 19437 ft | 342 kts | 178° |
| 2026-05-04 19:41 | 48.19319 | -1.74347 | 19006 ft | 341 kts | 178° |
| 2026-05-04 19:41 | 48.16945 | -1.74319 | 18578 ft | 340 kts | 178° |
| 2026-05-04 19:41 | 48.14571 | -1.74291 | 18135 ft | 339 kts | 178° |
| 2026-05-04 19:41 | 48.12200 | -1.74263 | 17645 ft | 339 kts | 178° |
| 2026-05-04 19:42 | 48.09872 | -1.74235 | 17170 ft | 338 kts | 178° |
| 2026-05-04 19:42 | 48.07517 | -1.74319 | 16684 ft | 338 kts | 185° |
| 2026-05-04 19:42 | 48.05200 | -1.74997 | 16226 ft | 339 kts | 195° |
| 2026-05-04 19:42 | 48.02963 | -1.76121 | 15763 ft | 338 kts | 198° |
| 2026-05-04 19:43 | 48.00771 | -1.77270 | 15329 ft | 337 kts | 198° |
| 2026-05-04 19:43 | 47.98556 | -1.78434 | 14878 ft | 337 kts | 198° |
| 2026-05-04 19:43 | 47.96336 | -1.79594 | 14501 ft | 335 kts | 198° |
| 2026-05-04 19:43 | 47.94135 | -1.80736 | 14252 ft | 333 kts | 198° |
| 2026-05-04 19:44 | 47.91921 | -1.81877 | 14028 ft | 346 kts | 198° |
| 2026-05-04 19:44 | 47.89605 | -1.83066 | 13794 ft | 351 kts | 198° |
| 2026-05-04 19:44 | 47.88068 | -1.83853 | 13615 ft | 350 kts | 198° |
| 2026-05-04 19:44 | 47.84999 | -1.85424 | 13239 ft | 346 kts | 198° |
| 2026-05-04 19:45 | 47.82749 | -1.86573 | 12970 ft | 344 kts | 198° |
| 2026-05-04 19:45 | 47.80479 | -1.87730 | 12720 ft | 342 kts | 198° |
| 2026-05-04 19:45 | 47.78987 | -1.88490 | 12537 ft | 341 kts | 197° |
| 2026-05-04 19:45 | 47.76023 | -1.89999 | 12049 ft | 337 kts | 198° |
| 2026-05-04 19:46 | 47.73808 | -1.91125 | 11655 ft | 334 kts | 198° |
| 2026-05-04 19:46 | 47.71615 | -1.92240 | 11245 ft | 332 kts | 198° |
| 2026-05-04 19:46 | 47.70144 | -1.92987 | 10973 ft | 331 kts | 198° |
| 2026-05-04 19:46 | 47.67996 | -1.94076 | 10722 ft | 324 kts | 198° |
| 2026-05-04 19:47 | 47.65887 | -1.95118 | 10574 ft | 314 kts | 193° |
| 2026-05-04 19:47 | 47.63755 | -1.95300 | 10427 ft | 302 kts | 169° |
| 2026-05-04 19:47 | 47.61811 | -1.94365 | 10301 ft | 292 kts | 154° |
| 2026-05-04 19:47 | 47.60007 | -1.93062 | 10182 ft | 283 kts | 152° |
| 2026-05-04 19:48 | 47.58266 | -1.91763 | 10045 ft | 276 kts | 152° |
| 2026-05-04 19:48 | 47.56589 | -1.90515 | 9876 ft | 270 kts | 152° |
| 2026-05-04 19:48 | 47.54903 | -1.89268 | 9581 ft | 269 kts | 152° |
| 2026-05-04 19:48 | 47.53228 | -1.88038 | 9297 ft | 268 kts | 153° |
| 2026-05-04 19:49 | 47.51551 | -1.86813 | 9011 ft | 266 kts | 153° |
| 2026-05-04 19:49 | 47.49905 | -1.85617 | 8750 ft | 265 kts | 153° |
| 2026-05-04 19:49 | 47.48245 | -1.84414 | 8473 ft | 263 kts | 153° |
| 2026-05-04 19:49 | 47.46605 | -1.83228 | 8209 ft | 262 kts | 153° |
| 2026-05-04 19:50 | 47.44991 | -1.82061 | 7951 ft | 260 kts | 153° |
| 2026-05-04 19:50 | 47.43480 | -1.80619 | 7648 ft | 259 kts | 130° |
| 2026-05-04 19:50 | 47.42632 | -1.78333 | 7420 ft | 254 kts | 107° |
| 2026-05-04 19:50 | 47.42178 | -1.75820 | 7148 ft | 253 kts | 102° |
| 2026-05-04 19:51 | 47.41800 | -1.73279 | 6870 ft | 253 kts | 101° |
| 2026-05-04 19:51 | 47.41429 | -1.70745 | 6620 ft | 252 kts | 102° |
| 2026-05-04 19:51 | 47.41053 | -1.68220 | 6358 ft | 251 kts | 102° |
| 2026-05-04 19:51 | 47.40675 | -1.65728 | 6083 ft | 251 kts | 101° |
| 2026-05-04 19:52 | 47.40286 | -1.63206 | 5804 ft | 250 kts | 101° |
| 2026-05-04 19:52 | 47.39900 | -1.60725 | 5668 ft | 244 kts | 102° |
| 2026-05-04 19:52 | 47.39525 | -1.58342 | 5547 ft | 237 kts | 102° |
| 2026-05-04 19:52 | 47.39157 | -1.56012 | 5450 ft | 229 kts | 102° |
| 2026-05-04 19:53 | 47.38802 | -1.53770 | 5377 ft | 218 kts | 102° |
| 2026-05-04 19:53 | 47.38461 | -1.51625 | 4991 ft | 218 kts | 102° |
| 2026-05-04 19:53 | 47.37979 | -1.49523 | 4626 ft | 214 kts | 123° |
| 2026-05-04 19:53 | 47.37020 | -1.47923 | 4312 ft | 207 kts | 131° |
| 2026-05-04 19:54 | 47.36064 | -1.46364 | 3972 ft | 202 kts | 130° |
| 2026-05-04 19:54 | 47.35142 | -1.44833 | 3609 ft | 199 kts | 130° |
| 2026-05-04 19:54 | 47.34236 | -1.43326 | 3443 ft | 190 kts | 130° |
| 2026-05-04 19:54 | 47.33254 | -1.42070 | 3416 ft | 189 kts | 158° |
| 2026-05-04 19:55 | 47.31953 | -1.41985 | 3446 ft | 192 kts | 202° |
| 2026-05-04 19:55 | 47.30842 | -1.43043 | 3484 ft | 191 kts | 221° |
| 2026-05-04 19:55 | 47.29838 | -1.44313 | 3446 ft | 193 kts | 223° |
| 2026-05-04 19:55 | 47.28816 | -1.45626 | 3244 ft | 192 kts | 223° |
| 2026-05-04 19:56 | 47.27834 | -1.46882 | 2994 ft | 180 kts | 223° |
| 2026-05-04 19:56 | 47.26911 | -1.48067 | 2778 ft | 172 kts | 223° |
| 2026-05-04 19:56 | 47.26006 | -1.49224 | 2619 ft | 184 kts | 223° |
| 2026-05-04 19:56 | 47.24966 | -1.50580 | 2303 ft | 206 kts | 225° |
| 2026-05-04 19:57 | 47.23977 | -1.52001 | 1903 ft | 189 kts | 229° |
| 2026-05-04 19:57 | 47.23110 | -1.53346 | 1611 ft | 172 kts | 229° |
| 2026-05-04 19:57 | 47.22291 | -1.54535 | 1353 ft | 157 kts | 227° |
| 2026-05-04 19:57 | 47.21526 | -1.55578 | 1315 ft | 150 kts | 225° |
| 2026-05-04 19:58 | 47.20727 | -1.56602 | 1201 ft | 153 kts | 222° |
| 2026-05-04 19:58 | 47.19870 | -1.57517 | 1004 ft | 150 kts | 215° |
| 2026-05-04 19:58 | 47.18963 | -1.58271 | 763 ft | 149 kts | 211° |
| 2026-05-04 19:58 | 47.18059 | -1.58950 | 597 ft | 144 kts | 210° |
| 2026-05-04 19:59 | 47.17184 | -1.59634 | 368 ft | 145 kts | 208° |
| 2026-05-04 19:59 | 47.16295 | -1.60329 | 153 ft | 145 kts | 210° |
| 2026-05-04 19:59 | 47.15435 | -1.60975 | 96 ft | 128 kts | 210° |
| 2026-05-04 19:59 | 47.14770 | -1.61489 | 99 ft | 86 kts | 207° |
| 2026-05-04 20:00 | 47.14376 | -1.61791 | 86 ft | 43 kts | 206° |
| 2026-05-04 20:00 | 47.14238 | -1.61883 | 82 ft | 2 kts | 187° |
| 2026-05-04 20:00 | 47.14197 | -1.61875 | 74 ft | 13 kts | 166° |
| 2026-05-04 20:00 | 47.14148 | -1.61783 | 69 ft | 13 kts | 71° |
| 2026-05-04 20:01 | 47.14189 | -1.61667 | 83 ft | 13 kts | 40° |
| 2026-05-04 20:01 | 47.14268 | -1.61606 | 83 ft | 13 kts | 27° |
| 2026-05-04 20:01 | 47.14345 | -1.61548 | 84 ft | 12 kts | 27° |
| 2026-05-04 20:01 | 47.14419 | -1.61492 | 88 ft | 12 kts | 27° |
| 2026-05-04 20:02 | 47.14494 | -1.61433 | 92 ft | 13 kts | 27° |
| 2026-05-04 20:02 | 47.14590 | -1.61361 | 94 ft | 17 kts | 27° |
| 2026-05-04 20:02 | 47.14701 | -1.61278 | 94 ft | 18 kts | 27° |
| 2026-05-04 20:02 | 47.14816 | -1.61190 | 95 ft | 18 kts | 27° |
| 2026-05-04 20:03 | 47.14927 | -1.61105 | 96 ft | 18 kts | 27° |
| 2026-05-04 20:03 | 47.15035 | -1.61023 | 95 ft | 17 kts | 28° |
| 2026-05-04 20:03 | 47.15139 | -1.60941 | 97 ft | 17 kts | 26° |
| 2026-05-04 20:03 | 47.15243 | -1.60863 | 97 ft | 17 kts | 27° |
| 2026-05-04 20:04 | 47.15353 | -1.60781 | 96 ft | 18 kts | 27° |
| 2026-05-04 20:04 | 47.15460 | -1.60698 | 95 ft | 17 kts | 27° |
| 2026-05-04 20:04 | 47.15562 | -1.60619 | 100 ft | 16 kts | 27° |
| 2026-05-04 20:04 | 47.15661 | -1.60543 | 98 ft | 16 kts | 26° |
| 2026-05-04 20:05 | 47.15719 | -1.60460 | 98 ft | 10 kts | 76° |
| 2026-05-04 20:05 | 47.15724 | -1.60377 | 98 ft | 7 kts | 85° |
| 2026-05-04 20:05 | 47.15731 | -1.60323 | 97 ft | 3 kts | 79° |
| 2026-05-04 20:05 | 47.15733 | -1.60308 | 98 ft | 0 kts | 79° |